createdAt,value
2019-05-29T00:00:54.941Z,100487.64
2019-05-29T00:03:26.550Z,100487.38
2019-05-29T00:06:00.057Z,100483.57
2019-05-29T00:08:31.684Z,100497.24
2019-05-29T00:11:03.455Z,100499.52
2019-05-29T00:13:35.183Z,100501.87
2019-05-29T00:16:06.915Z,100501.80
2019-05-29T00:18:38.644Z,100503.36
2019-05-29T00:21:11.677Z,100511.41
2019-05-29T00:23:44.084Z,100508.48
2019-05-29T00:26:16.608Z,100516.33
2019-05-29T00:28:49.595Z,100522.36
2019-05-29T00:31:21.432Z,100527.03
2019-05-29T00:33:53.238Z,100532.69
2019-05-29T00:36:24.962Z,100530.25
2019-05-29T00:38:56.963Z,100527.14
2019-05-29T00:41:28.761Z,100534.50
2019-05-29T00:44:00.592Z,100533.83
2019-05-29T00:46:33.610Z,100532.42
2019-05-29T00:49:05.335Z,100539.52
2019-05-29T00:51:37.059Z,100550.35
2019-05-29T00:54:08.792Z,100547.05
2019-05-29T00:56:40.621Z,100556.77
2019-05-29T00:59:13.047Z,100555.75
2019-05-29T01:01:44.721Z,100553.52
2019-05-29T01:04:16.460Z,100557.52
2019-05-29T01:06:48.288Z,100561.31
2019-05-29T01:09:20.752Z,100558.97
2019-05-29T01:11:53.874Z,100566.77
2019-05-29T01:14:25.699Z,100572.19
2019-05-29T01:16:57.426Z,100574.58
2019-05-29T01:19:29.153Z,100576.39
2019-05-29T01:22:02.051Z,100575.75
2019-05-29T01:24:33.871Z,100571.86
2019-05-29T01:27:05.695Z,100573.84
2019-05-29T01:29:37.422Z,100573.20
2019-05-29T01:32:09.319Z,100576.45
2019-05-29T01:34:40.951Z,100584.05
2019-05-29T01:37:13.899Z,100584.05
2019-05-29T01:39:46.328Z,100586.14
2019-05-29T01:42:19.383Z,100591.39
2019-05-29T01:45:06.374Z,100598.48
2019-05-29T01:47:24.390Z,100607.42
2019-05-29T01:49:56.282Z,100608.38
2019-05-29T01:52:28.133Z,100605.82
2019-05-29T01:55:00.201Z,100608.58
2019-05-29T01:57:33.169Z,100622.37
2019-05-29T02:00:08.301Z,100621.82
2019-05-29T02:02:40.122Z,100624.07
2019-05-29T02:05:12.046Z,100624.00
2019-05-29T02:07:43.654Z,100629.52
2019-05-29T02:10:18.373Z,100633.61
2019-05-29T02:12:50.262Z,100637.02
2019-05-29T02:15:29.962Z,100640.83
2019-05-29T02:17:55.307Z,100646.41
2019-05-29T02:20:27.250Z,100647.29
2019-05-29T02:22:59.120Z,100653.28
2019-05-29T02:25:30.845Z,100661.23
2019-05-29T02:28:02.684Z,100663.34
2019-05-29T02:30:34.405Z,100671.09
2019-05-29T02:33:08.901Z,100684.01
2019-05-29T02:35:40.620Z,100690.38
2019-05-29T02:38:13.348Z,100699.97
2019-05-29T02:40:46.737Z,100706.86
2019-05-29T02:43:19.235Z,100704.11
2019-05-29T02:45:54.718Z,100707.12
2019-05-29T02:48:27.305Z,100706.17
2019-05-29T02:50:59.523Z,100707.66
2019-05-29T02:53:31.239Z,100711.26
2019-05-29T02:56:03.063Z,100718.47
2019-05-29T02:58:34.788Z,100722.83
2019-05-29T03:01:06.510Z,100727.00
2019-05-29T03:03:40.134Z,100721.87
2019-05-29T03:06:12.199Z,100727.39
2019-05-29T03:08:44.096Z,100734.79
2019-05-29T03:11:15.728Z,100741.24
2019-05-29T03:13:47.913Z,100741.56
2019-05-29T03:16:21.166Z,100743.66
2019-05-29T03:18:52.898Z,100764.25
2019-05-29T03:21:26.051Z,100755.94
2019-05-29T03:23:57.825Z,100757.17
2019-05-29T03:26:31.437Z,100759.20
2019-05-29T03:29:04.703Z,100765.81
2019-05-29T03:31:43.551Z,100774.38
2019-05-29T03:34:10.161Z,100779.63
2019-05-29T03:36:47.145Z,100779.45
2019-05-29T03:39:15.408Z,100783.75
2019-05-29T03:41:47.137Z,100784.03
2019-05-29T03:44:19.695Z,100790.48
2019-05-29T03:46:51.421Z,100788.31
2019-05-29T03:49:24.470Z,100797.24
2019-05-29T03:51:56.197Z,100799.29
2019-05-29T03:54:28.835Z,100797.88
2019-05-29T03:57:01.247Z,100800.00
2019-05-29T03:59:37.490Z,100795.25
2019-05-29T04:02:09.388Z,100799.45
2019-05-29T04:04:41.116Z,100808.78
2019-05-29T04:07:14.384Z,100813.29
2019-05-29T04:09:47.430Z,100817.69
2019-05-29T04:12:20.766Z,100810.58
2019-05-29T04:14:54.603Z,100821.86
2019-05-29T04:17:29.593Z,100820.94
2019-05-29T04:20:01.523Z,100836.23
2019-05-29T04:22:41.053Z,100833.70
2019-05-29T04:25:14.091Z,100841.94
2019-05-29T04:27:50.407Z,100831.59
2019-05-29T04:30:22.478Z,100843.16
2019-05-29T04:32:54.144Z,100843.16
2019-05-29T04:35:25.880Z,100850.16
2019-05-29T04:37:58.586Z,100856.86
2019-05-29T04:40:30.588Z,100858.81
2019-05-29T04:43:02.715Z,100870.60
2019-05-29T04:45:37.226Z,100882.21
2019-05-29T04:48:08.074Z,100885.70
2019-05-29T04:50:40.594Z,100884.61
2019-05-29T04:53:12.990Z,100892.62
2019-05-29T04:55:44.886Z,100886.96
2019-05-29T04:58:16.617Z,100888.52
2019-05-29T05:00:58.634Z,100887.25
2019-05-29T05:03:21.658Z,100899.08
2019-05-29T05:05:53.399Z,100901.28
2019-05-29T05:08:25.251Z,100906.19
2019-05-29T05:10:56.977Z,100912.82
2019-05-29T05:13:29.461Z,100918.13
2019-05-29T05:16:03.270Z,100930.11
2019-05-29T05:18:35.859Z,100927.91
2019-05-29T05:21:07.921Z,100933.25
2019-05-29T05:23:40.502Z,100932.34
2019-05-29T05:26:12.733Z,100940.24
2019-05-29T05:28:46.048Z,100945.78
2019-05-29T05:31:18.009Z,100955.81
2019-05-29T05:33:49.861Z,100961.04
2019-05-29T05:36:21.856Z,100957.75
2019-05-29T05:38:53.695Z,100968.45
2019-05-29T05:41:25.425Z,100979.25
2019-05-29T05:43:57.150Z,100982.58
2019-05-29T05:46:28.895Z,100991.25
2019-05-29T05:49:00.732Z,100996.91
2019-05-29T05:51:33.459Z,101010.64
2019-05-29T05:54:06.144Z,101009.09
2019-05-29T05:56:37.792Z,101017.56
2019-05-29T05:59:09.644Z,101020.84
2019-05-29T06:01:42.200Z,101019.77
2019-05-29T06:04:14.031Z,101024.80
2019-05-29T06:06:46.127Z,101024.02
2019-05-29T06:09:19.502Z,101036.23
2019-05-29T06:11:51.136Z,101037.85
2019-05-29T06:14:22.855Z,101034.13
2019-05-29T06:16:54.584Z,101031.91
2019-05-29T06:19:26.433Z,101035.80
2019-05-29T06:21:58.160Z,101028.17
2019-05-29T06:24:30.878Z,101033.55
2019-05-29T06:27:02.619Z,101030.23
2019-05-29T06:29:35.222Z,101029.63
2019-05-29T06:32:07.381Z,101029.00
2019-05-29T06:34:39.611Z,101038.97
2019-05-29T06:37:12.667Z,101041.84
2019-05-29T06:39:44.503Z,101051.30
2019-05-29T06:42:16.259Z,101050.73
2019-05-29T06:44:49.823Z,101055.62
2019-05-29T06:47:21.602Z,101059.36
2019-05-29T06:49:53.336Z,101066.77
2019-05-29T06:52:25.066Z,101057.60
2019-05-29T06:54:57.684Z,101059.43
2019-05-29T06:57:29.515Z,101067.30
2019-05-29T07:00:01.278Z,101069.39
2019-05-29T07:02:34.300Z,101074.40
2019-05-29T07:05:08.399Z,101079.73
2019-05-29T07:07:40.428Z,101079.44
2019-05-29T07:10:12.975Z,101086.00
2019-05-29T07:12:44.755Z,101095.05
2019-05-29T07:15:17.316Z,101100.73
2019-05-29T07:17:48.944Z,101105.84
2019-05-29T07:20:20.965Z,101096.30
2019-05-29T07:22:52.666Z,101102.19
2019-05-29T07:25:24.480Z,101100.94
2019-05-29T07:27:56.531Z,101095.80
2019-05-29T07:30:28.762Z,101105.38
2019-05-29T07:33:00.590Z,101104.81
2019-05-29T07:35:32.352Z,101106.54
2019-05-29T07:38:04.339Z,101117.43
2019-05-29T07:40:36.179Z,101119.23
2019-05-29T07:43:07.900Z,101110.30
2019-05-29T07:45:40.574Z,101112.88
2019-05-29T07:48:12.982Z,101120.20
2019-05-29T07:50:46.070Z,101119.67
2019-05-29T07:53:19.314Z,101118.01
2019-05-29T07:55:51.055Z,101130.28
2019-05-29T07:58:22.824Z,101133.09
2019-05-29T08:01:12.199Z,101137.19
2019-05-29T08:03:28.181Z,101140.88
2019-05-29T08:05:59.931Z,101141.22
2019-05-29T08:08:31.706Z,101143.55
2019-05-29T08:11:03.474Z,101144.02
2019-05-29T08:13:35.221Z,101153.77
2019-05-29T08:16:06.954Z,101150.93
2019-05-29T08:18:41.132Z,101163.08
2019-05-29T08:21:12.573Z,101160.70
2019-05-29T08:23:44.433Z,101169.24
2019-05-29T08:26:16.156Z,101166.64
2019-05-29T08:28:48.901Z,101165.48
2019-05-29T08:31:21.245Z,101173.13
2019-05-29T08:33:53.000Z,101180.25
2019-05-29T08:36:24.726Z,101184.88
2019-05-29T08:38:56.496Z,101184.41
2019-05-29T08:41:28.222Z,101188.65
2019-05-29T08:43:59.986Z,101188.51
2019-05-29T08:46:33.511Z,101188.30
2019-05-29T08:49:05.039Z,101189.03
2019-05-29T08:51:37.761Z,101192.30
2019-05-29T08:54:23.647Z,101193.08
2019-05-29T08:56:44.263Z,101199.17
2019-05-29T08:59:16.312Z,101200.13
2019-05-29T09:01:50.400Z,101206.71
2019-05-29T09:04:21.753Z,101211.88
2019-05-29T09:06:53.651Z,101204.05
2019-05-29T09:09:26.743Z,101208.39
2019-05-29T09:11:58.572Z,101207.88
2019-05-29T09:14:30.483Z,101209.33
2019-05-29T09:17:02.338Z,101208.06
2019-05-29T09:19:34.154Z,101213.03
2019-05-29T09:22:05.886Z,101209.81
2019-05-29T09:24:37.625Z,101200.00
2019-05-29T09:27:09.360Z,101210.90
2019-05-29T09:29:41.188Z,101218.35
2019-05-29T09:32:13.683Z,101211.93
2019-05-29T09:34:47.705Z,101208.45
2019-05-29T09:37:20.519Z,101219.13
2019-05-29T09:39:52.465Z,101232.72
2019-05-29T09:42:25.345Z,101234.87
2019-05-29T09:44:57.519Z,101238.16
2019-05-29T09:47:29.347Z,101234.22
2019-05-29T09:50:01.391Z,101232.28
2019-05-29T09:52:34.629Z,101241.25
2019-05-29T09:55:08.105Z,101240.11
2019-05-29T09:57:39.741Z,101241.89
2019-05-29T10:00:12.709Z,101244.52
2019-05-29T10:02:44.534Z,101242.97
2019-05-29T10:05:17.548Z,101246.36
2019-05-29T10:07:49.180Z,101243.17
2019-05-29T10:10:21.458Z,101250.92
2019-05-29T10:12:53.510Z,101251.39
2019-05-29T10:15:26.888Z,101251.93
2019-05-29T10:18:01.097Z,101255.17
2019-05-29T10:20:33.121Z,101253.44
2019-05-29T10:23:05.321Z,101263.01
2019-05-29T10:25:37.094Z,101263.08
2019-05-29T10:28:08.876Z,101269.14
2019-05-29T10:30:42.257Z,101273.08
2019-05-29T10:33:14.516Z,101266.50
2019-05-29T10:35:49.049Z,101277.81
2019-05-29T10:38:19.876Z,101279.95
2019-05-29T10:41:00.542Z,101280.14
2019-05-29T10:43:34.044Z,101289.96
2019-05-29T10:45:58.829Z,101287.04
2019-05-29T10:48:30.598Z,101293.25
2019-05-29T10:51:02.525Z,101294.41
2019-05-29T10:53:34.350Z,101302.94
2019-05-29T10:56:08.260Z,101306.48
2019-05-29T10:58:49.735Z,101298.09
2019-05-29T11:01:13.624Z,101304.46
2019-05-29T11:03:45.582Z,101304.29
2019-05-29T11:06:17.478Z,101305.38
2019-05-29T11:08:50.015Z,101307.56
2019-05-29T11:11:22.107Z,101324.24
2019-05-29T11:13:55.177Z,101324.84
2019-05-29T11:16:27.259Z,101327.00
2019-05-29T11:18:59.006Z,101323.70
2019-05-29T11:21:30.988Z,101323.00
2019-05-29T11:24:02.850Z,101321.59
2019-05-29T11:26:34.591Z,101328.06
2019-05-29T11:29:06.565Z,101334.70
2019-05-29T11:31:38.398Z,101335.66
2019-05-29T11:34:10.241Z,101338.72
2019-05-29T11:36:41.975Z,101347.62
2019-05-29T11:39:13.755Z,101337.31
2019-05-29T11:41:45.503Z,101332.77
2019-05-29T11:44:17.349Z,101334.62
2019-05-29T11:46:50.166Z,101334.62
2019-05-29T11:49:21.995Z,101340.83
2019-05-29T11:51:55.356Z,101344.66
2019-05-29T11:54:27.064Z,101337.33
2019-05-29T14:00:17.085Z,101371.36
2019-05-29T14:02:37.693Z,101368.80
2019-05-29T14:05:10.726Z,101379.78
2019-05-29T14:07:42.374Z,101378.30
2019-05-29T14:10:15.992Z,101374.17
2019-05-29T14:12:48.629Z,101377.78
2019-05-29T14:15:21.631Z,101380.23
2019-05-29T14:17:53.405Z,101379.68
2019-05-29T14:20:26.263Z,101375.09
2019-05-29T14:22:58.457Z,101376.08
2019-05-29T14:25:30.519Z,101372.95
2019-05-29T14:28:02.724Z,101372.95
2019-05-29T14:30:34.648Z,101373.16
2019-05-29T14:33:06.838Z,101376.50
2019-05-29T14:35:40.011Z,101382.86
2019-05-29T14:38:14.936Z,101384.84
2019-05-29T14:40:45.468Z,101390.16
2019-05-29T14:43:17.443Z,101382.15
2019-05-29T14:45:49.561Z,101379.41
2019-05-29T14:48:21.296Z,101381.61
2019-05-29T14:50:54.573Z,101386.33
2019-05-29T14:53:26.329Z,101391.42
2019-05-29T14:55:58.070Z,101390.06
2019-05-29T14:58:30.874Z,101389.84
2019-05-29T15:01:03.111Z,101390.42
2019-05-29T15:03:35.201Z,101388.73
2019-05-29T15:06:07.615Z,101392.81
2019-05-29T15:08:39.535Z,101388.26
2019-05-29T15:11:12.081Z,101388.18
2019-05-29T15:13:43.802Z,101390.68
2019-05-29T15:16:15.457Z,101387.36
2019-05-29T15:18:47.188Z,101393.75
2019-05-29T15:21:18.942Z,101396.73
2019-05-29T15:23:54.546Z,101396.91
2019-05-29T15:26:27.097Z,101397.53
2019-05-29T15:29:01.125Z,101407.84
2019-05-29T15:31:35.760Z,101415.04
2019-05-29T15:34:08.851Z,101409.31
2019-05-29T15:36:41.682Z,101408.94
2019-05-29T15:39:14.679Z,101410.46
2019-05-29T15:41:47.881Z,101400.27
2019-05-29T15:44:22.537Z,101414.02
2019-05-29T15:46:58.428Z,101417.80
2019-05-29T15:49:31.360Z,101417.83
2019-05-29T15:52:03.182Z,101422.89
2019-05-29T15:54:34.946Z,101419.84
2019-05-29T15:57:06.955Z,101425.81
2019-05-29T15:59:39.262Z,101432.97
2019-05-29T16:02:11.473Z,101420.20
2019-05-29T16:04:43.556Z,101424.42
2019-05-29T16:07:16.102Z,101417.56
2019-05-29T16:09:48.482Z,101418.59
2019-05-29T16:12:20.306Z,101422.48
2019-05-29T16:14:52.423Z,101417.50
2019-05-29T16:17:24.719Z,101422.20
2019-05-29T16:19:56.452Z,101421.68
2019-05-29T16:22:28.328Z,101424.92
2019-05-29T16:25:01.172Z,101431.48
2019-05-29T16:27:33.522Z,101427.23
2019-05-29T16:30:09.147Z,101423.86
2019-05-29T16:32:42.310Z,101431.58
2019-05-29T16:35:19.345Z,101427.98
2019-05-29T16:37:52.237Z,101429.39
2019-05-29T16:40:25.422Z,101433.55
2019-05-29T16:42:58.392Z,101438.70
2019-05-29T16:45:41.701Z,101441.55
2019-05-29T16:48:16.475Z,101445.23
2019-05-29T16:50:50.016Z,101448.50
2019-05-29T16:53:23.321Z,101448.13
2019-05-29T16:55:55.488Z,101454.77
2019-05-29T16:58:27.179Z,101462.09
2019-05-29T17:00:59.041Z,101460.74
2019-05-29T17:03:30.807Z,101455.21
2019-05-29T17:06:03.820Z,101460.37
2019-05-29T17:08:35.723Z,101458.77
2019-05-29T17:11:09.964Z,101465.78
2019-05-29T17:13:41.678Z,101464.42
2019-05-29T17:16:14.427Z,101464.31
2019-05-29T17:18:47.930Z,101474.23
2019-05-29T17:21:22.737Z,101472.86
2019-05-29T17:23:54.511Z,101485.20
2019-05-29T17:26:26.830Z,101476.53
2019-05-29T17:28:59.659Z,101480.04
2019-05-29T17:31:31.537Z,101483.34
2019-05-29T17:34:04.475Z,101490.30
2019-05-29T17:36:38.089Z,101492.35
2019-05-29T17:39:10.988Z,101496.59
2019-05-29T17:41:42.688Z,101489.59
2019-05-29T17:44:15.441Z,101498.02
2019-05-29T17:46:47.418Z,101502.34
2019-05-29T17:49:28.968Z,101510.23
2019-05-29T17:51:54.509Z,101507.29
2019-05-29T17:54:27.796Z,101510.28
2019-05-29T17:57:01.553Z,101511.33
2019-05-29T17:59:34.288Z,101512.77
2019-05-29T18:02:06.243Z,101508.07
2019-05-29T18:04:38.223Z,101509.24
2019-05-29T18:07:10.279Z,101513.05
2019-05-29T18:09:43.679Z,101514.56
2019-05-29T18:12:17.011Z,101518.42
2019-05-29T18:14:53.233Z,101526.00
2019-05-29T18:17:27.821Z,101535.67
2019-05-29T18:20:01.390Z,101534.07
2019-05-29T18:22:36.470Z,101543.23
2019-05-29T18:25:11.636Z,101545.09
2019-05-29T18:27:44.944Z,101541.06
2019-05-29T18:30:18.441Z,101548.87
2019-05-29T18:32:50.675Z,101557.70
2019-05-29T18:35:22.921Z,101561.05
2019-05-29T18:37:54.932Z,101567.14
2019-05-29T18:40:26.880Z,101573.20
2019-05-29T18:42:59.074Z,101573.74
2019-05-29T18:45:31.069Z,101576.45
2019-05-29T18:48:04.402Z,101586.03
2019-05-29T18:50:36.628Z,101592.89
2019-05-29T18:53:09.979Z,101594.41
2019-05-29T18:55:42.953Z,101594.94
2019-05-29T18:58:16.175Z,101607.70
2019-05-29T19:00:48.770Z,101608.77
2019-05-29T19:03:21.371Z,101612.69
2019-05-29T19:05:55.229Z,101613.02
2019-05-29T19:08:27.766Z,101616.23
2019-05-29T19:10:59.533Z,101626.92
2019-05-29T19:13:32.458Z,101629.50
2019-05-29T19:16:04.311Z,101628.28
2019-05-29T19:18:36.084Z,101633.33
2019-05-29T19:21:12.460Z,101637.44
2019-05-29T19:23:45.343Z,101642.00
2019-05-29T19:26:19.589Z,101648.84
2019-05-29T19:28:53.374Z,101647.90
2019-05-29T19:31:27.058Z,101652.45
2019-05-29T19:34:01.589Z,101658.34
2019-05-29T19:36:35.266Z,101660.45
2019-05-29T19:39:09.947Z,101662.52
2019-05-29T19:41:41.807Z,101673.70
2019-05-29T19:44:13.800Z,101676.62
2019-05-29T19:46:53.644Z,101670.34
2019-05-29T19:49:20.043Z,101678.17
2019-05-29T19:51:52.353Z,101681.25
2019-05-29T19:54:25.323Z,101680.16
2019-05-29T19:56:57.576Z,101686.41
2019-05-29T19:59:29.977Z,101686.75
2019-05-29T20:02:03.640Z,101694.67
2019-05-29T20:04:38.037Z,101696.34
2019-05-29T20:07:09.672Z,101699.05
2019-05-29T20:09:41.638Z,101702.84
2019-05-29T20:12:16.549Z,101701.43
2019-05-29T20:14:48.976Z,101709.14
2019-05-29T20:17:22.544Z,101714.28
2019-05-29T20:19:54.608Z,101714.39
2019-05-29T20:22:28.569Z,101719.02
2019-05-29T20:25:01.571Z,101717.70
2019-05-29T20:27:34.223Z,101722.33
2019-05-29T20:30:08.444Z,101728.05
2019-05-29T20:32:40.259Z,101733.91
2019-05-29T20:35:18.017Z,101735.08
2019-05-29T20:37:49.689Z,101731.73
2019-05-29T20:40:25.052Z,101730.27
2019-05-29T20:42:56.896Z,101737.45
2019-05-29T20:45:29.540Z,101741.30
2019-05-29T20:48:02.756Z,101744.74
2019-05-29T20:50:37.702Z,101745.30
2019-05-29T20:53:11.192Z,101754.44
2019-05-29T20:55:43.016Z,101752.80
2019-05-29T20:58:24.417Z,101752.41
2019-05-29T21:00:56.151Z,101757.03
2019-05-29T21:03:27.946Z,101762.53
2019-05-29T21:06:04.662Z,101760.69
2019-05-29T21:08:38.956Z,101759.87
2019-05-29T21:11:12.834Z,101757.75
2019-05-29T21:13:45.275Z,101763.40
2019-05-29T21:16:17.102Z,101764.46
2019-05-29T21:18:54.432Z,101768.14
2019-05-29T21:21:30.217Z,101768.14
2019-05-29T21:24:02.137Z,101770.92
2019-05-29T21:26:34.983Z,101773.34
2019-05-29T21:29:16.686Z,101778.95
2019-05-29T21:31:49.562Z,101783.09
2019-05-29T21:34:23.599Z,101793.19
2019-05-29T21:36:55.421Z,101790.47
2019-05-29T21:39:27.132Z,101788.05
2019-05-29T21:41:58.956Z,101786.59
2019-05-29T21:44:30.681Z,101788.64
2019-05-29T21:47:02.399Z,101799.72
2019-05-29T21:49:34.222Z,101803.25
2019-05-29T21:52:06.122Z,101801.77
2019-05-29T21:54:37.740Z,101807.09
2019-05-29T21:57:09.567Z,101812.82
2019-05-29T21:59:41.647Z,101810.22
2019-05-29T22:02:13.578Z,101811.25
2019-05-29T22:04:46.467Z,101813.32
2019-05-29T22:07:19.023Z,101815.35
2019-05-29T22:09:50.740Z,101820.55
2019-05-29T22:12:22.451Z,101820.91
2019-05-29T22:14:55.162Z,101829.64
2019-05-29T22:17:26.969Z,101825.91
2019-05-29T22:19:59.042Z,101829.77
2019-05-29T22:22:31.136Z,101827.13
2019-05-29T22:25:02.807Z,101829.73
2019-05-29T22:27:36.010Z,101835.91
2019-05-29T22:30:09.353Z,101834.24
2019-05-29T22:32:40.970Z,101837.11
2019-05-29T22:35:13.408Z,101835.56
2019-05-29T22:37:45.327Z,101842.06
2019-05-29T22:40:17.709Z,101838.88
2019-05-29T22:42:49.413Z,101849.05
2019-05-29T22:45:21.515Z,101853.01
2019-05-29T22:47:53.864Z,101856.34
2019-05-29T22:50:25.913Z,101858.09
2019-05-29T22:52:57.860Z,101859.83
2019-05-29T22:55:30.034Z,101858.94
2019-05-29T22:58:02.205Z,101858.02
2019-05-29T23:00:36.585Z,101863.07
2019-05-29T23:03:08.409Z,101865.36
2019-05-29T23:05:40.160Z,101868.66
2019-05-29T23:08:11.875Z,101864.48
2019-05-29T23:10:43.723Z,101862.70
2019-05-29T23:13:15.444Z,101865.55
2019-05-29T23:15:47.188Z,101874.98
2019-05-29T23:18:20.073Z,101877.22
2019-05-29T23:20:52.408Z,101876.23
2019-05-29T23:23:24.625Z,101881.43
2019-05-29T23:25:56.560Z,101882.45
2019-05-29T23:28:28.806Z,101883.89
2019-05-29T23:31:01.028Z,101887.91
2019-05-29T23:33:33.226Z,101890.41
2019-05-29T23:36:05.230Z,101890.97
2019-05-29T23:38:37.046Z,101891.17
2019-05-29T23:41:08.768Z,101891.15
2019-05-29T23:43:40.493Z,101889.36
2019-05-29T23:46:12.319Z,101888.65
2019-05-29T23:48:44.038Z,101891.12
2019-05-29T23:51:15.777Z,101893.59
2019-05-29T23:53:47.652Z,101886.81
2019-05-29T23:56:19.314Z,101889.55
2019-05-29T23:58:51.036Z,101882.59
